Tiempo atmosférico en la estación meteorológica de Saelices El Chico, Salamanca (680 m.)



Fecha
DESCASC
Temp. máxima en grados centígrados (hora)
DESCASC
Temp. mínima en grados centígrados (hora)
DESCASC
Temp. media en grados centígrados
DESCASC
Racha de viento máxima en m/sg (hora)
DESCASC
Velocidad máxima media en intervalos de 10 minutos(hora)
DESCASC
Precipitaciones diarias en mm
DESCASC
Precipitaciones de 00:00 a 06:00 en mm
DESCASC
Precipitaciones de 06:00 a 12:00 en mm
DESCASC
Precipitaciones de 12:00 a 18:00 en mm
DESCASC
Precipitaciones de 18:00 a 24:00 en mm
DESCASC
26-09-2020 19.6 (15:00) 5.8 (00:00) 12.7 13.06 (15:40) 7.22 (15:40) 0 0 0 0 0
31-08-2020 28.2 (17:20) 5.8 (00:00) 17 8.33 (16:40) 3.89 (16:40) 0 0 0 0 0
25-09-2020 17.8 (16:30) 8.4 (00:00) 13.1 14.44 (17:00) 8.61 (13:10) 0 0 0 0 0
21-09-2020 23.2 (15:50) 8.9 (00:00) 16.1 8.33 (17:20) 3.89 (16:00) 0 0 0 0 0
09-09-2020 31.4 (16:30) 8.9 (07:50) 20.1 7.5 (16:40) 3.89 (16:40) 0 0 0 0 0
29-08-2020 23.4 (16:40) 9 (00:00) 16.2 13.06 (17:50) 6.39 (10:50) 0 0 0 0 0
22-09-2020 24.6 (15:30) 9.5 (00:00) 17.1 7.78 (15:50) 3.33 (15:50) 0 0 0 0 0
16-09-2020 29.1 (15:30) 9.6 (07:50) 19.4 9.72 (13:20) 5 (13:20) 0 0 0 0 0
03-09-2020 33.7 (18:00) 9.7 (00:00) 21.7 10.28 (15:40) 3.33 (15:50) 0 0 0 0 0
30-08-2020 23.5 (17:10) 9.8 (00:00) 16.7 13.06 (08:50) 9.17 (08:50) 0 0 0 0 0
10-09-2020 31.8 (16:10) 9.8 (00:00) 20.8 7.5 (17:50) 3.89 (17:10) 0 0 0 0 0
08-09-2020 28.5 (18:00) 10.5 (00:00) 19.5 12.5 (00:40) 8.06 (01:20) 0 0 0 0 0
11-09-2020 33.7 (16:00) 11.1 (00:00) 22.4 8.33 (15:00) 3.61 (18:30) 0 0 0 0 0
01-09-2020 28.9 (16:40) 11.4 (00:00) 20.1 10 (15:50) 3.89 (15:50) 0 0 0 0 0
24-09-2020 20.7 (15:50) 11.9 (00:00) 16.3 13.89 (17:50) 7.78 (16:10) 0 0 0 0 0
04-09-2020 34.8 (16:10) 12.2 (00:00) 23.5 9.17 (17:40) 4.17 (12:30) 0 0 0 0 0
12-09-2020 34.6 (16:00) 12.3 (07:50) 23.4 7.78 (16:20) 4.44 (18:20) 0 0 0 0 0
02-09-2020 31.4 (17:20) 12.4 (00:00) 21.9 7.78 (17:40) 4.72 (08:20) 0 0 0 0 0
15-09-2020 27.8 (15:40) 12.6 (00:00) 20.2 11.67 (14:00) 5.83 (13:40) 0 0 0 0 0
05-09-2020 34.6 (16:20) 12.7 (00:00) 23.6 12.22 (14:50) 5 (23:10) 0 0 0 0 0
18-09-2020 22.5 (14:20) 12.9 (00:00) 17.7 16.39 (15:50) 7.78 (15:50) 6.6 0 0.2 0.4 6
07-09-2020 26.3 (17:50) 13.3 (07:20) 19.8 18.61 (10:30) 11.67 (10:10) 0 0 0 0 0
20-09-2020 23.2 (16:30) 13.8 (00:00) 18.5 11.39 (14:50) 6.11 (15:10) 1.4 1.2 0 0.2 0
23-09-2020 21.7 (14:10) 14 (00:00) 17.9 10.83 (17:00) 5 (17:10) 8 0.2 0.4 7.4 0
13-09-2020 33.2 (13:40) 14.2 (00:00) 23.7 13.06 (14:30) 6.11 (15:20) 0 0 0 0 0
19-09-2020 19.8 (14:00) 14.3 (00:00) 17 14.17 (03:50) 7.22 (04:00) 7.4 2.8 0 3.2 1.4
28-08-2020 27.2 (16:00) 14.6 (00:00) 20.9 12.5 (14:50) 6.67 (22:00) 0 0 0 0 0
17-09-2020 25.7 (14:30) 15.2 (00:00) 20.5 13.89 (15:40) 7.22 (15:40) 8.4 0 0 0 8.4
06-09-2020 33.4 (17:20) 15.6 (00:00) 24.5 11.11 (05:20) 6.67 (05:10) 0 0 0 0 0
14-09-2020 29.3 (17:40) 17.9 (00:00) 23.6 13.06 (15:00) 6.67 (17:50) 0 0 0 0 0

Gráficas

Temp. máximas Temp. mínimas Temp. medias Precipitaciones Rachas de viento máximas Velocidades máximas media en intervalos de 10 minutos

Datos horarios

Fecha y hora oficial Temperatura (ºC) Velocidad del viento (km/h) Dirección del viento Racha (km/h) Dirección de racha Precipitación (mm) Presión (hPa) Tendencia (hPa) Humedad (%)
2020-09-26 23:00:00 13.8 13 Oeste 32 Noroeste 0 941.4 -- 77
2020-09-26 22:00:00 14.2 17 Noroeste 36 Noroeste 0 941.6 -- 73
2020-09-26 21:00:00 14.9 18 Noroeste 36 Noroeste 0 941.6 -- 68
2020-09-26 20:00:00 15.6 15 Noroeste 36 Noroeste 0 941.6 -- 63
2020-09-26 19:00:00 16.7 17 Noroeste 39 Noroeste 0 941.5 -- 57
2020-09-26 18:00:00 17.2 15 Noroeste 33 Noroeste 0 941.5 -- 53
2020-09-26 17:00:00 18.1 15 Noroeste 41 Noroeste 0 942 -- 47
2020-09-26 16:00:00 19.3 20 Norte 47 Noroeste 0 942.6 -- 43
2020-09-26 15:00:00 18.6 22 Noroeste 43 Noroeste 0 942.9 -- 42
2020-09-26 14:00:00 17.8 18 Noroeste 46 Norte 0 943.8 -- 44
2020-09-26 13:00:00 15.8 23 Noroeste 41 Noroeste 0 944.5 -- 50
2020-09-26 12:00:00 14.6 16 Noroeste 32 Norte 0 944.9 -- 55
2020-09-26 11:00:00 12 10 Noroeste 27 Norte 0 945.4 -- 64
2020-09-26 10:00:00 9.3 12 Noroeste 26 Norte 0 945.6 -- 76
2020-09-26 09:00:00 7.5 3 Oeste 13 Norte 0 945.1 -- 84
2020-09-26 08:00:00 6 6 Norte 12 Noroeste 0 945.3 -- 84
2020-09-26 07:00:00 6.8 6 Noroeste 15 Noroeste 0 945.4 -- 83
2020-09-26 06:00:00 7.3 8 Noroeste 21 Norte 0 945.9 -- 81
2020-09-26 05:00:00 7.7 11 Noroeste 22 Norte 0 945.9 -- 78
2020-09-26 04:00:00 7.8 11 Noroeste 16 Norte 0 946.2 -- 77
2020-09-26 03:00:00 8.3 8 Noroeste 17 Norte 0 946.3 -- 74
2020-09-26 02:00:00 8.7 4 Noroeste 14 Norte 0 946.7 -- 71
2020-09-26 01:00:00 9.8 6 Noroeste 19 Noroeste 0 947.1 -- 65
2020-09-26 00:00:00 10.3 9 Noroeste 15 Noroeste 0 947.2 -- 62
2020-09-25 23:00:00 11.1 6 Noroeste 25 Noroeste 0 947.2 -- 57
2020-09-25 22:00:00 12 10 Norte 27 Norte 0 946.8 -- 53
2020-09-25 21:00:00 13.1 8 Norte 28 Norte 0 946.6 -- 48
2020-09-25 20:00:00 14.4 17 Norte 38 Norte 0 946 -- 43
2020-09-25 19:00:00 16.3 18 Norte 41 Norte 0 945.8 -- 39
2020-09-25 18:00:00 17 25 Norte 42 Noroeste 0 945.5 -- 35
2020-09-25 17:00:00 17.2 25 Noroeste 52 Norte 0 945.1 -- 35
2020-09-25 16:00:00 17.4 17 Noroeste 41 Norte 0 945.9 -- 36
2020-09-25 15:00:00 17 17 Noroeste 40 Noroeste 0 946.3 -- 37
2020-09-25 14:00:00 16 17 Noroeste 50 Norte 0 946.7 -- 40
2020-09-25 13:00:00 14.5 30 Norte 49 Noroeste 0 946.5 -- 44
2020-09-25 12:00:00 13.9 19 Noroeste 41 Noroeste 0 947 -- 48
2020-09-25 11:00:00 12.4 17 Noroeste 33 Norte 0 946.5 -- 56
2020-09-25 10:00:00 11.4 7 Oeste 14 Noroeste 0 945.9 -- 69
2020-09-25 09:00:00 9 0 Calma 9 Noroeste 0 945 -- 85
2020-09-25 08:00:00 8.4 7 Noroeste 14 Noroeste 0 944.3 -- 83
2020-09-25 07:00:00 8.7 4 Norte 17 Noroeste 0 944 -- 82
2020-09-25 06:00:00 10.1 9 Oeste 26 Oeste 0 943.3 -- 79
2020-09-25 05:00:00 11.2 18 Oeste 32 Oeste 0 942.6 -- 76
2020-09-25 04:00:00 11.5 14 Oeste 31 Noroeste 0 942.8 -- 76
2020-09-25 03:00:00 11.7 18 Oeste 36 Noroeste 0 942.9 -- 77
2020-09-25 02:00:00 11.9 13 Oeste 24 Oeste 0 942.7 -- 77
2020-09-25 01:00:00 11.4 10 Oeste 28 Oeste 0 942.4 -- 78
2020-09-25 00:00:00 11.9 11 Noroeste 29 Oeste 0 942.3 -- 74
2020-09-24 23:00:00 13 15 Oeste 32 Noroeste 0 942.1 -- 68
2020-09-24 22:00:00 13.8 15 Oeste 32 Oeste 0 941.7 -- 63
2020-09-24 21:00:00 14.4 14 Oeste 33 Noroeste 0 941 -- 56
2020-09-24 20:00:00 15.8 17 Oeste 40 Oeste 0 940.1 -- 48
2020-09-24 19:00:00 17.5 24 Oeste 48 Oeste 0 939.8 -- 42
2020-09-24 18:00:00 19.4 24 Oeste 50 Oeste 0 939.2 -- 38
2020-09-24 17:00:00 19.9 23 Oeste 45 Oeste 0 939.1 -- 44
2020-09-24 16:00:00 20.5 27 Oeste 48 Oeste 0 939 -- 43
2020-09-24 15:00:00 20.2 20 Oeste 44 Oeste 0 939.1 -- 46
2020-09-24 14:00:00 18 17 Oeste 39 Oeste 0 939.4 -- 59
2020-09-24 13:00:00 18.2 17 Oeste 32 Oeste 0 939.5 -- 59
2020-09-24 12:00:00 16.8 10 Oeste 18 Oeste 0 939.4 -- 68
2020-09-24 11:00:00 15.2 10 Oeste 16 Oeste 0 939 -- 72
2020-09-24 10:00:00 14.2 7 Noroeste 13 Oeste 0 938.5 -- 82
2020-09-24 09:00:00 13.5 5 Noroeste 12 Noroeste 0 938 -- 86
2020-09-24 08:00:00 13.5 7 Oeste 13 Noroeste 0 937.9 -- 86
2020-09-24 07:00:00 14 3 Noroeste 6 Noroeste 0 937.4 -- 88
2020-09-24 06:00:00 14.3 2 Oeste 8 Noroeste 0 936.9 -- 85
2020-09-24 05:00:00 14.6 4 Noroeste 17 Oeste 0 937.4 -- 85
2020-09-24 04:00:00 15.1 7 Noroeste 14 Oeste 0 937.8 -- 85
2020-09-24 03:00:00 15.2 0 Calma 9 Oeste 0 938 -- 85
2020-09-24 02:00:00 15.1 6 Oeste 9 Oeste 0 938.1 -- 86
2020-09-24 01:00:00 14.9 4 Oeste 9 Noroeste 0 937.9 -- 87
2020-09-24 00:00:00 14.3 4 Nordeste 9 Este 0 937.8 -- 88
2020-09-23 23:00:00 14.9 3 Oeste 14 Oeste 0 937.9 -- 85
2020-09-23 22:00:00 15.9 7 Oeste 16 Oeste 0 937.6 -- 82
2020-09-23 21:00:00 16.5 8 Oeste 18 Oeste 0 937 -- 78
2020-09-23 20:00:00 17.7 9 Oeste 24 Oeste 0 936.6 -- 75
2020-09-23 19:00:00 19.2 12 Oeste 26 Oeste 0 936.3 -- 71
2020-09-23 18:00:00 18.9 14 Oeste 36 Oeste 0.2 936.2 -- 78
2020-09-23 17:00:00 17.3 17 Oeste 39 Oeste 2.2 936.4 -- 85
2020-09-23 16:00:00 17.2 14 Noroeste 28 Noroeste 3.6 936.4 -- 88
2020-09-23 15:00:00 17.2 12 Noroeste 35 Sudoeste 0.2 936.5 -- 85
2020-09-23 14:00:00 21 12 Sudoeste 28 Oeste 0.4 936.3 -- 57
2020-09-23 13:00:00 19.9 13 Sudoeste 36 Sudoeste 0.8 936.7 -- 69
2020-09-23 12:00:00 17.4 7 Sudoeste 17 Sur 0 936.9 -- 79
2020-09-23 11:00:00 15.9 6 Sur 18 Sudoeste 0.4 936.5 -- 85
2020-09-23 10:00:00 16 10 Sur 17 Sur 0 936.1 -- 79
2020-09-23 09:00:00 15.1 5 Sur 12 Sur 0 935.7 -- 83
2020-09-23 08:00:00 14.1 9 Sur 13 Sur 0 935.5 -- 86
2020-09-23 07:00:00 15.3 5 Sur 8 Sur 0 935.6 -- 86
2020-09-23 06:00:00 15.6 2 Noroeste 8 Norte 0 935.8 -- 85
2020-09-23 05:00:00 15.6 6 Norte 8 Nordeste 0 935.7 -- 85
2020-09-23 04:00:00 15.8 2 Noroeste 5 Norte 0 936 -- 83
2020-09-23 03:00:00 16.3 4 Sur 5 Sur 0.2 936.4 -- 79
2020-09-23 02:00:00 16.5 3 Oeste 8 Oeste 0 936.7 -- 80
2020-09-23 01:00:00 16 5 Oeste 10 Oeste 0 937.1 -- 78
2020-09-23 00:00:00 16.3 4 Sudoeste 8 Noroeste 0 937.3 -- 75
2020-09-22 23:00:00 17.1 6 Noroeste 9 Noroeste 0 937.4 -- 69
2020-09-22 22:00:00 18 5 Oeste 12 Oeste 0 937.2 -- 64
2020-09-22 21:00:00 18.2 5 Oeste 15 Oeste 0 936.5 -- 62
2020-09-22 20:00:00 19.8 8 Noroeste 17 Oeste 0 936.2 -- 60
2020-09-22 19:00:00 20.6 10 Noroeste 24 Noroeste 0 936.2 -- 57
2020-09-22 18:00:00 23.1 10 Oeste 24 Oeste 0 936.2 -- 41
2020-09-22 17:00:00 24.1 8 Oeste 25 Oeste 0 936.5 -- 38
2020-09-22 16:00:00 23.8 9 Sudoeste 28 Sudoeste 0 937 -- 36
2020-09-22 15:00:00 23.8 8 Noroeste 22 Oeste 0 937.6 -- 36
2020-09-22 14:00:00 22.4 10 Oeste 23 Oeste 0 938.4 -- 41
2020-09-22 13:00:00 21.1 10 Oeste 20 Oeste 0 938.9 -- 45
2020-09-22 12:00:00 18.5 7 Sudoeste 17 Oeste 0 939.4 -- 60
2020-09-22 11:00:00 16.6 3 Este 10 Este 0 939.7 -- 71
2020-09-22 10:00:00 13.2 3 Sudeste 7 Sudeste 0 939.5 -- 84
2020-09-22 09:00:00 10.8 4 Sudeste 8 Este 0 939.2 -- 91
2020-09-22 08:00:00 9.6 5 Sudeste 7 Sudeste 0 939 -- 91
2020-09-22 07:00:00 9.8 5 Sudeste 8 Sudeste 0 938.9 -- 91
2020-09-22 06:00:00 9.8 7 Sudeste 10 Este 0 938.9 -- 90
2020-09-22 05:00:00 10.7 4 Este 6 Este 0 939.1 -- 89
2020-09-22 04:00:00 11 6 Este 9 Este 0 939.5 -- 89
2020-09-22 03:00:00 11.9 5 Sudeste 7 Sudeste 0 940.1 -- 86
2020-09-22 02:00:00 12.5 5 Oeste 8 Oeste 0 940.4 -- 85
2020-09-22 01:00:00 13.1 2 Nordeste 13 Noroeste 0 940.6 -- 83
2020-09-22 00:00:00 14 9 Noroeste 13 Noroeste 0 940.7 -- 79
2020-09-21 23:00:00 14.5 6 Oeste 14 Noroeste 0 940.6 -- 72
2020-09-21 22:00:00 15.9 6 Noroeste 14 Oeste 0 940.2 -- 64
2020-09-21 21:00:00 17.4 8 Oeste 14 Oeste 0 940 -- 57
2020-09-21 20:00:00 19.4 6 Noroeste 23 Oeste 0 940 -- 48
2020-09-21 19:00:00 20.7 10 Noroeste 26 Oeste 0 939.6 -- 43
2020-09-21 18:00:00 21.7 12 Noroeste 30 Oeste 0 939.7 -- 39
2020-09-21 17:00:00 21.7 12 Noroeste 26 Oeste 0 940 -- 37
2020-09-21 16:00:00 22.4 14 Oeste 27 Oeste 0 940.4 -- 31
2020-09-21 15:00:00 21.9 9 Noroeste 22 Oeste 0 940.8 -- 33
2020-09-21 14:00:00 20.6 6 Noroeste 21 Noroeste 0 941.2 -- 37
2020-09-21 13:00:00 19.6 9 Oeste 24 Norte 0 941.5 -- 48
2020-09-21 12:00:00 18.1 6 Noroeste 12 Norte 0 941.9 -- 56
2020-09-21 11:00:00 15.3 4 Nordeste 9 Nordeste 0 942.1 -- 72
2020-09-21 10:00:00 12 4 Sudeste 8 Sudeste 0 941.9 -- 87
2020-09-21 09:00:00 9.4 5 Sudeste 8 Este 0 941.7 -- 91
2020-09-21 08:00:00 9.2 3 Sudeste 6 Sudeste 0 941.3 -- 91
2020-09-21 07:00:00 9.2 2 Este 8 Este 0 940.9 -- 90
2020-09-21 06:00:00 9.1 4 Sudeste 10 Este 0 940.8 -- 90
2020-09-21 05:00:00 9.8 4 Sudeste 10 Sudeste 0 940.7 -- 89
2020-09-21 04:00:00 10.4 3 Sudeste 7 Sudeste 0 941 -- 87
2020-09-21 03:00:00 11.1 5 Este 11 Este 0 941.6 -- 86
2020-09-21 02:00:00 11.8 5 Sudeste 8 Este 0 941.8 -- 83
2020-09-21 01:00:00 12.7 4 Este 12 Este 0 942.1 -- 79
2020-09-21 00:00:00 13.8 6 Nordeste 19 Noroeste 0 942 -- 75
2020-09-20 23:00:00 15.1 9 Noroeste 20 Noroeste 0 941.8 -- 69
2020-09-20 22:00:00 15.9 8 Noroeste 16 Oeste 0 941.5 -- 71
2020-09-20 21:00:00 17.4 9 Oeste 23 Oeste 0 940.9 -- 63
2020-09-20 20:00:00 19.5 13 Oeste 28 Oeste 0 940.3 -- 54
2020-09-20 19:00:00 21.3 14 Oeste 32 Oeste 0 940.1 -- 47
2020-09-20 18:00:00 21.9 20 Oeste 39 Oeste 0 939.8 -- 44
2020-09-20 17:00:00 22.2 21 Oeste 37 Oeste 0 939.7 -- 43
2020-09-20 16:00:00 22.7 16 Oeste 41 Oeste 0 939.9 -- 41
2020-09-20 15:00:00 22.3 17 Oeste 41 Oeste 0 940 -- 48
2020-09-20 14:00:00 20.5 14 Noroeste 37 Oeste 0 940.2 -- 63
2020-09-20 13:00:00 19.3 13 Oeste 24 Sudoeste 0.2 940.3 -- 71
2020-09-20 12:00:00 17.7 9 Sudoeste 17 Sudoeste 0 940.3 -- 81
2020-09-20 11:00:00 16.3 10 Sur 18 Sur 0 940.2 -- 87
2020-09-20 10:00:00 15.7 8 Sur 13 Sur 0 939.7 -- 88
2020-09-20 09:00:00 15.1 4 Sudeste 15 Sudoeste 0 939.3 -- 90
2020-09-20 08:00:00 14.5 8 Sudoeste 15 Sudoeste 0 939 -- 90
2020-09-20 07:00:00 14.7 6 Sudoeste 9 Sudoeste 0 938.7 -- 90
2020-09-20 06:00:00 15.4 5 Sur 25 Sudoeste 0.4 938.7 -- 90
2020-09-20 05:00:00 15.4 4 Sur 11 Sur 0.4 938.6 -- 91
2020-09-20 04:00:00 15.3 6 Sudeste 11 Sudeste 0.2 938.8 -- 90
2020-09-20 03:00:00 15.3 7 Sudeste 12 Sudeste 0.2 939.2 -- 90
2020-09-20 02:00:00 15.3 5 Sudeste 12 Sur 0 939.5 -- 90
2020-09-20 01:00:00 15.3 5 Sudeste 14 Sur 0 939.6 -- 90
2020-09-20 00:00:00 15.3 9 Sudeste 15 Sur 0.2 939.7 -- 90
2020-09-19 23:00:00 15.5 6 Sur 12 Sur 0.2 939.8 -- 89
2020-09-19 22:00:00 15.8 6 Sudeste 10 Sudeste 0 939.3 -- 89
2020-09-19 21:00:00 15.8 4 Sur 11 Sur 0.2 938.8 -- 89
2020-09-19 20:00:00 15.8 4 Sudeste 12 Sur 0.2 938.6 -- 89
2020-09-19 19:00:00 15.8 8 Sur 15 Sur 0.6 938.4 -- 88
2020-09-19 18:00:00 15.8 9 Sudeste 14 Sur 1.2 938.1 -- 88
2020-09-19 17:00:00 15.8 8 Sur 18 Sudoeste 1.4 938.4 -- 85
2020-09-19 16:00:00 16.6 9 Sudoeste 32 Sudoeste 0.6 938.5 -- 79
2020-09-19 15:00:00 18.9 14 Sudoeste 33 Sudoeste 0 938.3 -- 58
2020-09-19 14:00:00 19.7 15 Sudoeste 32 Sudoeste 0 938.3 -- 55
2020-09-19 13:00:00 19 15 Sudoeste 32 Oeste 0 938.4 -- 61
2020-09-19 12:00:00 17.5 15 Sudoeste 26 Sudoeste 0 938.2 -- 67
2020-09-19 11:00:00 16.5 11 Sudoeste 23 Sudoeste 0 937.8 -- 78
2020-09-19 10:00:00 15.2 8 Sudoeste 18 Sudoeste 0 937.3 -- 84
2020-09-19 09:00:00 14.7 9 Sudoeste 26 Sudoeste 0 936.4 -- 87
2020-09-19 08:00:00 14.3 13 Sudoeste 29 Sudoeste 0 935.5 -- 87
2020-09-19 07:00:00 14.4 11 Sudoeste 27 Sudoeste 0 934.8 -- 88
2020-09-19 06:00:00 14.5 15 Sudoeste 36 Sudoeste 0.2 934 -- 88
2020-09-19 05:00:00 14.7 19 Sudoeste 45 Sudoeste 0 933.3 -- 88
2020-09-19 04:00:00 14.9 26 Sudoeste 51 Sudoeste 0.6 932.2 -- 87
2020-09-19 03:00:00 14.9 19 Sur 38 Sudeste 0.6 931.4 -- 89
2020-09-19 02:00:00 14.6 14 Sudeste 28 Sudeste 0.2 931.7 -- 87
2020-09-19 01:00:00 14.8 14 Sudeste 32 Sudeste 1.2 932.2 -- 89
2020-09-19 00:00:00 14.7 9 Sudeste 26 Sudeste 2.8 932.4 -- 90
2020-09-18 23:00:00 14.5 11 Sudeste 24 Sudeste 0 932.6 -- 88
2020-09-18 22:00:00 14.5 15 Sudeste 27 Sudeste 0.4 932.2 -- 86
2020-09-18 21:00:00 14.8 13 Sudeste 34 Sur 1.8 932.4 -- 86
2020-09-18 20:00:00 16.1 13 Sur 31 Sudeste 1 932.6 -- 79
2020-09-18 19:00:00 18.6 20 Sudeste 43 Sudeste 0 932 -- 59
2020-09-18 18:00:00 19.2 28 Sudeste 49 Sudeste 0 932.3 -- 56
2020-09-18 17:00:00 19.6 17 Sudeste 33 Sudeste 0.2 931.8 -- 65
2020-09-18 16:00:00 16.8 19 Sudeste 59 Sur 0.2 932.6 -- 79
2020-09-18 15:00:00 20.6 19 Sudeste 40 Sudeste 0 932.8 -- 51
2020-09-18 14:00:00 21.1 21 Sudeste 39 Sudeste 0 933.2 -- 47
2020-09-18 13:00:00 20.8 22 Sur 44 Sudeste 0 933.7 -- 52
2020-09-18 12:00:00 19 17 Sur 39 Sudeste 0 934 -- 61
2020-09-18 11:00:00 17.4 17 Sur 30 Sudeste 0.2 934 -- 67
2020-09-18 10:00:00 16.4 12 Sur 23 Sur 0 933.7 -- 76
2020-09-18 09:00:00 14.8 4 Sur 13 Sur 0 933.4 -- 87
2020-09-18 08:00:00 13 10 Sur 14 Sur 0 933.1 -- 89
2020-09-18 07:00:00 13.4 7 Sur 12 Sur 0 932.5 -- 88
2020-09-18 06:00:00 13.6 3 Sudoeste 9 Sur 0 932.3 -- 89
2020-09-18 05:00:00 14.1 2 Sudeste 15 Sur 0 932.2 -- 89
2020-09-18 04:00:00 14.4 5 Sur 11 Sudeste 0 932.7 -- 88
2020-09-18 03:00:00 15.1 5 Sudeste 11 Sur 0 932.7 -- 88
2020-09-18 02:00:00 15.2 5 Sudeste 13 Este 0 933.1 -- 89
2020-09-18 01:00:00 15.3 8 Este 14 Este 0 933.1 -- 89
2020-09-18 00:00:00 15.7 5 Este 12 Este 0 933.6 -- 89
2020-09-17 23:00:00 15.7 6 Este 12 Sur 0 934.2 -- 89
2020-09-17 22:00:00 15.8 4 Noroeste 37 Sur 7.4 933.9 -- 88
2020-09-17 21:00:00 17.2 5 Sur 13 Sur 0.6 932.8 -- 85
2020-09-17 20:00:00 17.7 8 Sudeste 22 Sudeste 0.4 933 -- 80
2020-09-17 19:00:00 20.4 8 Sur 24 Sudeste 0 933.1 -- 69
2020-09-17 18:00:00 21.2 10 Sudeste 30 Sudeste 0 933.3 -- 64
2020-09-17 17:00:00 22.1 14 Sur 38 Sudeste 0 933.7 -- 58
2020-09-17 16:00:00 22.8 22 Sur 50 Sur 0 934.1 -- 54
2020-09-17 15:00:00 23.6 24 Sudeste 49 Sudeste 0 934.2 -- 46
2020-09-17 14:00:00 23.6 20 Sur 45 Sur 0 934.8 -- 45
2020-09-17 13:00:00 24.2 23 Sudeste 40 Sudeste 0 935.2 -- 44
2020-09-17 12:00:00 22.4 19 Sudeste 35 Sudeste 0 935.5 -- 51
2020-09-17 11:00:00 22.2 18 Sur 33 Sur 0 935.5 -- 50
2020-09-17 10:00:00 20.8 6 Sudeste 15 Sudeste 0 935.6 -- 56
2020-09-17 09:00:00 19.7 10 Sudeste 19 Sudeste 0 935.6 -- 59
2020-09-17 08:00:00 18.6 8 Sudeste 17 Sudeste 0 935.8 -- 58
2020-09-17 07:00:00 18.9 10 Sur 16 Sudeste 0 935.4 -- 57
2020-09-17 06:00:00 17.4 5 Sudeste 16 Sudeste 0 935.4 -- 61
2020-09-17 05:00:00 15.5 5 Este 12 Sudeste 0 935.5 -- 65
2020-09-17 04:00:00 15.7 5 Este 11 Sudeste 0 936 -- 63
2020-09-17 03:00:00 16.1 6 Este 13 Sudoeste 0 936.7 -- 62
2020-09-17 02:00:00 17.3 6 Sudeste 10 Noroeste 0 937 -- 59
2020-09-17 01:00:00 18.3 6 Noroeste 16 Sudoeste 0 937.1 -- 55
2020-09-17 00:00:00 18.6 6 Sudoeste 12 Sudoeste 0 937.6 -- 54
2020-09-16 23:00:00 20.3 5 Nordeste 7 Nordeste 0 937.5 -- 50
2020-09-16 22:00:00 21.3 3 Norte 9 Oeste 0 937.7 -- 45
2020-09-16 21:00:00 23.7 8 Sudoeste 10 Oeste 0 937.7 -- 38
2020-09-16 20:00:00 25.1 6 Sudoeste 19 Sudoeste 0 937.6 -- 34
2020-09-16 19:00:00 26.4 10 Sur 24 Sur 0 937.5 -- 29
2020-09-16 18:00:00 27.6 12 Sur 25 Sudeste 0 937.6 -- 25
2020-09-16 17:00:00 28.1 14 Sur 27 Sudeste 0 938.1 -- 25
2020-09-16 16:00:00 28.6 13 Sur 30 Sudeste 0 938.5 -- 26
2020-09-16 15:00:00 28.5 14 Sudeste 33 Sudeste 0 939.2 -- 27
2020-09-16 14:00:00 28.4 16 Sudeste 35 Sudeste 0 939.8 -- 26
2020-09-16 13:00:00 26.4 9 Sudeste 31 Sudeste 0 940.5 -- 31
2020-09-16 12:00:00 25.4 3 Nordeste 8 Este 0 940.9 -- 32
2020-09-16 11:00:00 21.6 0 Calma 8 Este 0 941.1 -- 44
2020-09-16 10:00:00 16.8 2 Sur 5 Sudoeste 0 941.6 -- 58
2020-09-16 09:00:00 12.6 3 Este 5 Este 0 941.4 -- 73
2020-09-16 08:00:00 9.9 3 Este 10 Este 0 941.3 -- 81
2020-09-16 07:00:00 9.8 5 Sudeste 9 Sudeste 0 941.5 -- 80
2020-09-16 06:00:00 10.7 5 Sudeste 10 Sudeste 0 941.8 -- 77
2020-09-16 05:00:00 11.7 6 Sudeste 9 Este 0 941.9 -- 74
2020-09-16 04:00:00 12.4 4 Este 10 Sudeste 0 942.4 -- 71
2020-09-16 03:00:00 13.6 8 Sudeste 10 Sudeste 0 942.4 -- 67
2020-09-16 02:00:00 14.7 4 Norte 8 Este 0 942.7 -- 63
2020-09-16 01:00:00 15 4 Sudeste 12 Este 0 942.7 -- 62
2020-09-16 00:00:00 16.4 7 Este 10 Este 0 942.5 -- 56
2020-09-15 23:00:00 18.1 5 Este 9 Este 0 942.4 -- 50
2020-09-15 22:00:00 20.3 6 Oeste 11 Oeste 0 942 -- 45
2020-09-15 21:00:00 22.1 6 Sur 16 Sudoeste 0 941.4 -- 39
2020-09-15 20:00:00 24.6 9 Sur 27 Sur 0 941.5 -- 33
2020-09-15 19:00:00 26 13 Sur 31 Sur 0 941.4 -- 31
2020-09-15 18:00:00 26.9 14 Sudoeste 33 Sudoeste 0 941.5 -- 29
2020-09-15 17:00:00 27 13 Sudoeste 35 Sudoeste 0 941.7 -- 30
2020-09-15 16:00:00 27.5 15 Sur 33 Sudeste 0 942.1 -- 29
2020-09-15 15:00:00 27.4 14 Sur 39 Sudoeste 0 942.6 -- 28
2020-09-15 14:00:00 26.5 18 Sudoeste 42 Sudoeste 0 942.9 -- 30
2020-09-15 13:00:00 25.2 19 Sudoeste 36 Sudoeste 0 943.2 -- 32
2020-09-15 12:00:00 24 9 Sur 22 Sudeste 0 943.4 -- 42
2020-09-15 11:00:00 21 5 Este 11 Sudeste 0 943.6 -- 56
2020-09-15 10:00:00 17.6 3 Sudeste 9 Este 0 943.4 -- 68
2020-09-15 09:00:00 14.5 0 Calma 9 Oeste 0 943.3 -- 84
2020-09-15 08:00:00 12.6 6 Oeste 9 Oeste 0 943 -- 86
2020-09-15 07:00:00 13.3 3 Este 5 Nordeste 0 942.5 -- 83
2020-09-15 06:00:00 14 4 Norte 10 Norte 0 942.5 -- 81
2020-09-15 05:00:00 14.5 5 Norte 9 Noroeste 0 942.6 -- 79
2020-09-15 04:00:00 15.7 4 Noroeste 8 Noroeste 0 942.7 -- 75
2020-09-15 03:00:00 16.8 3 Noroeste 15 Oeste 0 943 -- 71
2020-09-15 02:00:00 17.7 7 Noroeste 13 Noroeste 0 942.8 -- 71
2020-09-15 01:00:00 18.1 8 Noroeste 22 Noroeste 0 942.8 -- 71
2020-09-15 00:00:00 19.4 11 Noroeste 21 Noroeste 0 942.3 -- 69
2020-09-14 23:00:00 20 8 Noroeste 17 Norte 0 941.8 -- 61
2020-09-14 22:00:00 22.1 10 Oeste 19 Oeste 0 940.9 -- 47
2020-09-14 21:00:00 23.7 9 Sudoeste 23 Sudoeste 0 940.4 -- 39
2020-09-14 20:00:00 25.9 12 Sudoeste 32 Sudoeste 0 940 -- 33
2020-09-14 19:00:00 27.4 23 Sudoeste 44 Sur 0 940.1 -- 28
2020-09-14 18:00:00 27.5 20 Sur 47 Sudoeste 0 940.3 -- 29
2020-09-14 17:00:00 28.8 22 Sur 41 Sur 0 940.5 -- 27
2020-09-14 16:00:00 28.1 20 Sur 38 Sudoeste 0 941.4 -- 31
2020-09-14 15:00:00 27.5 21 Sudoeste 47 Sur 0 942 -- 32
2020-09-14 14:00:00 27.4 20 Sur 46 Sudeste 0 942.3 -- 32
2020-09-14 13:00:00 26.9 17 Sur 40 Sudeste 0 942.7 -- 35
2020-09-14 12:00:00 25.7 17 Sudeste 37 Sudoeste 0 943 -- 41
2020-09-14 11:00:00 24.1 7 Sur 14 Sudeste 0 943.1 -- 50
2020-09-14 10:00:00 19.7 4 Este 8 Este 0 943.1 -- 58
2020-09-14 09:00:00 18.1 4 Sudeste 7 Este 0 942.7 -- 59
2020-09-14 08:00:00 18.6 3 Sudeste 6 Sur 0 942.3 -- 61
2020-09-14 07:00:00 19.4 2 Sudeste 10 Sudoeste 0 941.7 -- 58
2020-09-14 06:00:00 19.9 5 Sudoeste 12 Sudoeste 0 941.8 -- 58
2020-09-14 05:00:00 19 4 Sudeste 8 Sur 0 942 -- 51
2020-09-14 04:00:00 20.4 4 Sudoeste 9 Sudeste 0 942.1 -- 46
2020-09-14 03:00:00 21.1 4 Sur 23 Sudoeste 0 942 -- 44
2020-09-14 02:00:00 22.2 12 Sudoeste 23 Sudoeste 0 941.8 -- 40
2020-09-14 01:00:00 22 8 Sudoeste 18 Sudoeste 0 941.9 -- 37
2020-09-14 00:00:00 21.4 8 Sudoeste 15 Oeste 0 941.5 -- 37
2020-09-13 23:00:00 23.2 6 Este 12 Sudeste 0 941.4 -- 31
2020-09-13 22:00:00 23.3 6 Sudeste 13 Este 0 941.3 -- 31
2020-09-13 21:00:00 26.3 9 Sudeste 15 Sudeste 0 940.8 -- 26
2020-09-13 20:00:00 28.6 9 Sudeste 31 Sur 0 940.8 -- 23
2020-09-13 19:00:00 31.3 19 Sur 34 Sudeste 0 941 -- 18
2020-09-13 18:00:00 31.9 19 Sur 43 Sudeste 0 941.2 -- 17
2020-09-13 17:00:00 31.2 21 Sur 40 Sudeste 0 941.5 -- 18
2020-09-13 16:00:00 30.5 18 Sur 47 Sur 0 941.9 -- 17
2020-09-13 15:00:00 31.5 19 Sur 47 Sur 0 942.3 -- 14
2020-09-13 14:00:00 31.3 18 Sur 37 Sur 0 942.3 -- 16
2020-09-13 13:00:00 30.6 18 Sur 35 Sur 0 942.7 -- 17
2020-09-13 12:00:00 29.3 14 Sur 33 Sur 0 943 -- 20
2020-09-13 11:00:00 25.4 9 Sur 16 Sur 0 942.9 -- 27
2020-09-13 10:00:00 22.8 2 Sudeste 6 Sudeste 0 942.5 -- 29
2020-09-13 09:00:00 17.4 0 Calma 9 Oeste 0 942.3 -- 48
2020-09-13 08:00:00 14.6 2 Nordeste 8 Norte 0 941.9 -- 60
2020-09-13 07:00:00 14.3 5 Norte 8 Noroeste 0 941.6 -- 57
2020-09-13 06:00:00 14.9 6 Sudeste 12 Sudeste 0 941 -- 53
2020-09-13 05:00:00 15.8 5 Sudeste 7 Sudeste 0 940.9 -- 49
2020-09-13 04:00:00 16.8 2 Sudeste 12 Sudeste 0 940.9 -- 46
2020-09-13 03:00:00 18.7 7 Sur 12 Este 0 940.7 -- 38
2020-09-13 02:00:00 18.3 3 Noroeste 10 Este 0 941 -- 41
2020-09-13 01:00:00 20 4 Este 13 Sudeste 0 941.1 -- 35
2020-09-13 00:00:00 23.5 10 Norte 22 Nordeste 0 941 -- 27
2020-09-12 23:00:00 22.3 4 Este 7 Este 0 941.2 -- 29
2020-09-12 22:00:00 23.8 5 Nordeste 9 Nordeste 0 940.6 -- 31
2020-09-12 21:00:00 26.2 2 Sudeste 10 Sur 0 939.9 -- 25
2020-09-12 20:00:00 29.1 7 Sur 20 Sudoeste 0 939.5 -- 19
2020-09-12 19:00:00 31.6 12 Sudoeste 27 Sudoeste 0 939.1 -- 16
2020-09-12 18:00:00 33.2 11 Sudoeste 25 Sudoeste 0 938.9 -- 14
2020-09-12 17:00:00 33.6 10 Sur 28 Sur 0 938.8 -- 13
2020-09-12 16:00:00 34.4 11 Sur 25 Sur 0 939 -- 12
2020-09-12 15:00:00 33.8 13 Sur 26 Sudoeste 0 939.3 -- 13
2020-09-12 14:00:00 33.6 9 Sudeste 23 Sudeste 0 939.7 -- 13
2020-09-12 13:00:00 32 3 Sudoeste 13 Oeste 0 940.1 -- 15
2020-09-12 12:00:00 27.7 4 Nordeste 8 Nordeste 0 940.4 -- 20
2020-09-12 11:00:00 23.3 3 Oeste 9 Oeste 0 940.3 -- 29
2020-09-12 10:00:00 19.1 3 Sudoeste 7 Sudeste 0 939.9 -- 40
2020-09-12 09:00:00 14.9 3 Sur 7 Sudeste 0 939.8 -- 55
2020-09-12 08:00:00 12.4 6 Este 9 Este 0 939 -- 61
2020-09-12 07:00:00 12.8 5 Sudeste 6 Sudeste 0 938.5 -- 56
2020-09-12 06:00:00 13.5 0 Calma 6 Este 0 938.1 -- 52
2020-09-12 05:00:00 14.2 4 Sudeste 6 Este 0 938 -- 48
2020-09-12 04:00:00 16.5 4 Oeste 10 Oeste 0 938 -- 43
2020-09-12 03:00:00 17.8 3 Sudoeste 7 Sudoeste 0 937.9 -- 37
2020-09-12 02:00:00 19.9 3 Sudeste 8 Sudeste 0 937.8 -- 32
2020-09-12 01:00:00 21.5 5 Sudeste 18 Este 0 937.9 -- 28
2020-09-12 00:00:00 21.9 9 Este 17 Este 0 937.8 -- 27
2020-09-11 23:00:00 22.9 9 Este 16 Este 0 937.6 -- 26
2020-09-11 22:00:00 24 7 Nordeste 17 Nordeste 0 937.2 -- 27
2020-09-11 21:00:00 25.8 8 Nordeste 14 Nordeste 0 936.5 -- 21
2020-09-11 20:00:00 28.3 9 Norte 15 Norte 0 936.3 -- 18
2020-09-11 19:00:00 29.9 10 Norte 26 Norte 0 936.1 -- 15
2020-09-11 18:00:00 32 6 Nordeste 22 Norte 0 936.2 -- 13
2020-09-11 17:00:00 32.5 9 Norte 28 Norte 0 936.6 -- 12
2020-09-11 16:00:00 33.6 6 Oeste 24 Norte 0 936.9 -- 12
2020-09-11 15:00:00 32.2 9 Sudoeste 30 Oeste 0 937.3 -- 14
2020-09-11 14:00:00 30.7 6 Este 19 Nordeste 0 937.8 -- 15
2020-09-11 13:00:00 30.2 6 Este 15 Sudeste 0 938.4 -- 17
2020-09-11 12:00:00 26.1 4 Noroeste 12 Noroeste 0 938.8 -- 24
2020-09-11 11:00:00 22.1 3 Sudoeste 8 Sudoeste 0 938.9 -- 31
2020-09-11 10:00:00 17.7 5 Sudoeste 10 Sudoeste 0 938.8 -- 41
2020-09-11 09:00:00 14.2 4 Sudeste 8 Sudeste 0 938.5 -- 51
2020-09-11 08:00:00 11.6 6 Sur 9 Este 0 938.2 -- 60
2020-09-11 07:00:00 11.1 4 Norte 8 Este 0 938.1 -- 62
2020-09-11 06:00:00 12.2 5 Este 8 Este 0 938 -- 52
2020-09-11 05:00:00 13.5 4 Sudeste 5 Sur 0 938.1 -- 49
2020-09-11 04:00:00 14.3 2 Norte 5 Este 0 938.3 -- 47
2020-09-11 03:00:00 16.3 2 Sudoeste 9 Oeste 0 938.5 -- 41
2020-09-11 02:00:00 18.8 3 Oeste 14 Este 0 938.8 -- 33
2020-09-11 01:00:00 21.3 10 Este 17 Este 0 939 -- 28
2020-09-11 00:00:00 21 8 Este 18 Este 0 939.1 -- 28
2020-09-10 23:00:00 22.1 14 Nordeste 19 Este 0 939.1 -- 30
2020-09-10 22:00:00 22.9 11 Nordeste 15 Nordeste 0 939 -- 32
2020-09-10 21:00:00 24.5 9 Nordeste 16 Nordeste 0 938.5 -- 27
2020-09-10 20:00:00 28.6 9 Nordeste 16 Nordeste 0 938.6 -- 20
2020-09-10 19:00:00 30.8 5 Nordeste 23 Norte 0 938.7 -- 14
2020-09-10 18:00:00 30.9 12 Norte 27 Norte 0 939 -- 14
2020-09-10 17:00:00 31.5 9 Norte 23 Noroeste 0 939.5 -- 14
2020-09-10 16:00:00 31.2 12 Norte 26 Nordeste 0 940.3 -- 14
2020-09-10 15:00:00 30.9 8 Este 26 Sudeste 0 940.9 -- 14
2020-09-10 14:00:00 30.3 11 Este 24 Este 0 941.5 -- 16
2020-09-10 13:00:00 29.1 6 Nordeste 12 Nordeste 0 942.3 -- 20
2020-09-10 12:00:00 25.4 3 Norte 10 Oeste 0 943 -- 25
2020-09-10 11:00:00 20.7 4 Noroeste 12 Noroeste 0 943.4 -- 31
2020-09-10 10:00:00 16.7 3 Sur 9 Sudeste 0 943.2 -- 40
2020-09-10 09:00:00 12.4 5 Sudeste 9 Sudeste 0 943.1 -- 54
2020-09-10 08:00:00 9.9 2 Este 5 Este 0 942.7 -- 59
2020-09-10 07:00:00 10.4 3 Este 9 Sudeste 0 942.3 -- 57
2020-09-10 06:00:00 11.3 8 Sudeste 12 Este 0 942.1 -- 52
2020-09-10 05:00:00 12.4 5 Este 10 Sudeste 0 942.5 -- 53
2020-09-10 04:00:00 12.5 4 Sudeste 20 Este 0 942.7 -- 50
2020-09-10 03:00:00 13.3 7 Este 11 Sudeste 0 942.8 -- 42
2020-09-10 02:00:00 16.2 4 Noroeste 18 Oeste 0 942.9 -- 33
2020-09-10 01:00:00 16.9 13 Oeste 19 Oeste 0 943.1 -- 34
2020-09-10 00:00:00 18.6 5 Sur 12 Sudeste 0 943 -- 29
2020-09-09 23:00:00 20.3 8 Nordeste 15 Norte 0 942.6 -- 25
2020-09-09 22:00:00 21.9 13 Norte 16 Norte 0 942.3 -- 22
2020-09-09 21:00:00 23.7 10 Norte 14 Norte 0 941.8 -- 20
2020-09-09 20:00:00 27.7 11 Norte 22 Norte 0 941.7 -- 15
2020-09-09 19:00:00 29.9 5 Norte 27 Norte 0 941.3 -- 13
2020-09-09 18:00:00 31 4 Norte 24 Norte 0 941.6 -- 13
2020-09-09 17:00:00 30.8 7 Oeste 27 Norte 0 941.8 -- 13
2020-09-09 16:00:00 30.4 6 Oeste 22 Oeste 0 942.1 -- 12
2020-09-09 15:00:00 29.5 5 Noroeste 21 Noroeste 0 942.6 -- 14
2020-09-09 14:00:00 28.9 6 Noroeste 21 Norte 0 943.1 -- 15
2020-09-09 13:00:00 27.7 6 Sudoeste 15 Noroeste 0 943.7 -- 17
2020-09-09 12:00:00 24.8 5 Oeste 14 Oeste 0 944 -- 24
2020-09-09 11:00:00 21.6 5 Sudoeste 9 Oeste 0 944.2 -- 31
2020-09-09 10:00:00 16.5 3 Oeste 7 Sudoeste 0 944 -- 44
2020-09-09 09:00:00 12.4 4 Sudeste 9 Este 0 943.8 -- 56
2020-09-09 08:00:00 9.1 6 Este 9 Sudeste 0 943.3 -- 65
2020-09-09 07:00:00 9.9 4 Este 9 Este 0 942.8 -- 62
2020-09-09 06:00:00 10.8 6 Sudeste 10 Este 0 942.6 -- 57
2020-09-09 05:00:00 10.6 10 Este 13 Este 0 942.5 -- 58
2020-09-09 04:00:00 11.5 8 Este 11 Este 0 942.5 -- 55
2020-09-09 03:00:00 -- -- -- -- -- -- -- -- --
2020-09-09 02:00:00 -- -- -- -- -- -- -- -- --
2020-09-09 01:00:00 -- -- -- -- -- -- -- -- --
2020-09-09 00:00:00 -- -- -- -- -- -- -- -- --
2020-09-08 23:00:00 -- -- -- -- -- -- -- -- --
2020-09-08 22:00:00 -- -- -- -- -- -- -- -- --
2020-09-08 21:00:00 -- -- -- -- -- -- -- -- --
2020-09-08 20:00:00 -- -- -- -- -- -- -- -- --
2020-09-08 19:00:00 -- -- -- -- -- -- -- -- --
2020-09-08 18:00:00 -- -- -- -- -- -- -- -- --
2020-09-08 17:00:00 -- -- -- -- -- -- -- -- --
2020-09-08 16:00:00 -- -- -- -- -- -- -- -- --
2020-09-08 15:00:00 -- -- -- -- -- -- -- -- --
2020-09-08 14:00:00 -- -- -- -- -- -- -- -- --
2020-09-08 13:00:00 -- -- -- -- -- -- -- -- --
2020-09-08 12:00:00 -- -- -- -- -- -- -- -- --
2020-09-08 11:00:00 -- -- -- -- -- -- -- -- --
2020-09-08 10:00:00 -- -- -- -- -- -- -- -- --
2020-09-08 09:00:00 -- -- -- -- -- -- -- -- --
2020-09-08 08:00:00 -- -- -- -- -- -- -- -- --
2020-09-08 07:00:00 -- -- -- -- -- -- -- -- --
2020-09-08 06:00:00 -- -- -- -- -- -- -- -- --
2020-09-08 05:00:00 -- -- -- -- -- -- -- -- --
2020-09-08 04:00:00 -- -- -- -- -- -- -- -- --
2020-09-08 03:00:00 -- -- -- -- -- -- -- -- --
2020-09-08 02:00:00 -- -- -- -- -- -- -- -- --
2020-09-08 01:00:00 -- -- -- -- -- -- -- -- --
2020-09-08 00:00:00 18.5 23 Nordeste 41 Nordeste 0 943.1 -- 38
2020-09-07 23:00:00 19.4 18 Nordeste 37 Nordeste 0 942.9 -- 32
2020-09-07 22:00:00 20.5 21 Nordeste 34 Nordeste 0 942.4 -- 29
2020-09-07 21:00:00 21.7 20 Nordeste 33 Nordeste 0 941.6 -- 26
2020-09-07 20:00:00 23.6 15 Nordeste 43 Nordeste 0 941.2 -- 21
2020-09-07 19:00:00 25.1 27 Nordeste 39 Nordeste 0 941.1 -- 21
2020-09-07 18:00:00 25.8 26 Nordeste 42 Nordeste 0 941.2 -- 20
2020-09-07 17:00:00 25.8 24 Nordeste 41 Nordeste 0 941.3 -- 20
2020-09-07 16:00:00 25.8 23 Nordeste 45 Nordeste 0 941.4 -- 20
2020-09-07 15:00:00 25.5 26 Nordeste 46 Nordeste 0 942 -- 24
2020-09-07 14:00:00 23.7 26 Nordeste 47 Nordeste 0 942.4 -- 27
2020-09-07 13:00:00 22.8 28 Este 50 Nordeste 0 942.7 -- 30
2020-09-07 12:00:00 20.9 31 Nordeste 57 Nordeste 0 942.7 -- 36
2020-09-07 11:00:00 18.9 36 Nordeste 67 Nordeste 0 942.5 -- 43
2020-09-07 10:00:00 16.8 39 Nordeste 66 Nordeste 0 941.6 -- 51
2020-09-07 09:00:00 15 33 Este 58 Nordeste 0 941.5 -- 55
2020-09-07 08:00:00 13.6 14 Nordeste 37 Nordeste 0 941.7 -- 61
2020-09-07 07:00:00 13.7 9 Este 47 Este 0 941.5 -- 60
2020-09-07 06:00:00 14.2 14 Este 38 Nordeste 0 941.1 -- 58
2020-09-07 05:00:00 14.9 6 Este 26 Norte 0 940.9 -- 53
2020-09-07 04:00:00 15.9 8 Oeste 33 Nordeste 0 940.8 -- 48
2020-09-07 03:00:00 17 9 Nordeste 45 Nordeste 0 940.7 -- 46
2020-09-07 02:00:00 19.1 29 Nordeste 46 Nordeste 0 940.1 -- 42
2020-09-07 01:00:00 21.7 20 Nordeste 34 Nordeste 0 939.7 -- 40
2020-09-07 00:00:00 23.3 18 Este 31 Este 0 939.3 -- 37
2020-09-06 23:00:00 24.8 22 Este 35 Este 0 939.3 -- 33
2020-09-06 22:00:00 24.1 13 Norte 17 Norte 0 939 -- 31
2020-09-06 21:00:00 26.8 10 Norte 22 Norte 0 938.2 -- 24
2020-09-06 20:00:00 30 12 Norte 28 Norte 0 937.9 -- 20
2020-09-06 19:00:00 31.7 12 Norte 35 Norte 0 938 -- 18
2020-09-06 18:00:00 32.4 11 Norte 22 Norte 0 938 -- 18
2020-09-06 17:00:00 32.8 9 Noroeste 23 Nordeste 0 938.3 -- 17
2020-09-06 16:00:00 32.6 9 Oeste 22 Norte 0 938.8 -- 21
2020-09-06 15:00:00 31 9 Sudeste 20 Sudeste 0 939.4 -- 24
2020-09-06 14:00:00 28.5 8 Este 21 Nordeste 0 939.9 -- 29
2020-09-06 13:00:00 26.5 11 Este 24 Este 0 940.5 -- 34
2020-09-06 12:00:00 24 10 Nordeste 24 Este 0 940.7 -- 41
2020-09-06 11:00:00 21.4 8 Nordeste 23 Este 0 940.8 -- 50
2020-09-06 10:00:00 18.8 13 Este 22 Este 0 940.7 -- 59
2020-09-06 09:00:00 16.7 14 Este 28 Nordeste 0 940.7 -- 66
2020-09-06 08:00:00 15.6 16 Este 27 Nordeste 0 940.2 -- 70
2020-09-06 07:00:00 15.9 15 Nordeste 30 Nordeste 0 939.9 -- 71
2020-09-06 06:00:00 16.6 5 Norte 40 Nordeste 0 940.1 -- 66
2020-09-06 05:00:00 17.7 19 Nordeste 34 Nordeste 0 940 -- 62
2020-09-06 04:00:00 19.1 6 Nordeste 35 Nordeste 0 939.9 -- 57
2020-09-06 03:00:00 20.4 21 Nordeste 31 Nordeste 0 939.9 -- 50
2020-09-06 02:00:00 21.8 19 Norte 32 Este 0 939.8 -- 42
2020-09-06 01:00:00 23.4 5 Este 17 Este 0 939.8 -- 34
2020-09-06 00:00:00 24.9 6 Este 36 Nordeste 0 939.5 -- 29
2020-09-05 23:00:00 25.3 12 Nordeste 21 Norte 0 939.6 -- 24
2020-09-05 22:00:00 25.1 8 Noroeste 16 Norte 0 938.9 -- 24
2020-09-05 21:00:00 27.5 12 Norte 19 Nordeste 0 938.3 -- 20
2020-09-05 20:00:00 31.6 9 Norte 22 Norte 0 938.2 -- 15
2020-09-05 19:00:00 33.1 11 Norte 27 Norte 0 938.5 -- 13
2020-09-05 18:00:00 33.7 15 Norte 32 Norte 0 938.7 -- 13
2020-09-05 17:00:00 34 11 Norte 27 Oeste 0 939.1 -- 13
2020-09-05 16:00:00 34.3 10 Norte 33 Norte 0 939.8 -- 13
2020-09-05 15:00:00 33.8 13 Norte 44 Nordeste 0 940.8 -- 13
2020-09-05 14:00:00 33.2 8 Oeste 33 Norte 0 941.2 -- 14
2020-09-05 13:00:00 31.9 6 Oeste 19 Nordeste 0 941.7 -- 17
2020-09-05 12:00:00 28.1 6 Oeste 13 Oeste 0 942.4 -- 25
2020-09-05 11:00:00 24.1 4 Oeste 9 Sudeste 0 942.6 -- 32
2020-09-05 10:00:00 19.9 3 Sudeste 7 Sudeste 0 942.9 -- 42
2020-09-05 09:00:00 15.9 2 Sudeste 10 Este 0 942.8 -- 54
2020-09-05 08:00:00 12.9 5 Este 9 Este 0 942.6 -- 62
2020-09-05 07:00:00 12.8 4 Sudeste 9 Sudeste 0 942.4 -- 61
2020-09-05 06:00:00 13.7 8 Sudeste 11 Sudeste 0 942.4 -- 57
2020-09-05 05:00:00 14.6 7 Sudeste 9 Este 0 942.6 -- 53
2020-09-05 04:00:00 16.1 6 Este 8 Este 0 943 -- 48
2020-09-05 03:00:00 16.5 6 Este 9 Este 0 943.3 -- 47
2020-09-05 02:00:00 18.6 5 Este 11 Este 0 943.6 -- 41
2020-09-05 01:00:00 20.5 4 Nordeste 9 Noroeste 0 943.8 -- 40
2020-09-05 00:00:00 22.7 5 Noroeste 17 Noroeste 0 943.5 -- 31
2020-09-04 23:00:00 24.6 9 Noroeste 17 Noroeste 0 943.2 -- 27
2020-09-04 22:00:00 25.6 9 Noroeste 19 Noroeste 0 942.8 -- 24
2020-09-04 21:00:00 28 9 Sur 17 Sudoeste 0 942 -- 20
2020-09-04 20:00:00 31.4 9 Sur 23 Sudoeste 0 941.8 -- 16
2020-09-04 19:00:00 33.1 10 Sur 23 Sudoeste 0 941.9 -- 14
2020-09-04 18:00:00 33.8 8 Sudoeste 33 Sur 0 941.9 -- 13
2020-09-04 17:00:00 34.3 8 Sudeste 25 Sudoeste 0 942.2 -- 12
2020-09-04 16:00:00 34.3 7 Oeste 28 Sudoeste 0 942.8 -- 12
2020-09-04 15:00:00 33.6 12 Sudeste 31 Sudoeste 0 943.2 -- 13
2020-09-04 14:00:00 33.1 13 Sudoeste 33 Sudeste 0 944 -- 14
2020-09-04 13:00:00 32 14 Sur 28 Sur 0 944.5 -- 15
2020-09-04 12:00:00 30 7 Sudoeste 21 Sur 0 944.9 -- 19
2020-09-04 11:00:00 25.4 4 Oeste 9 Oeste 0 944.8 -- 23
2020-09-04 10:00:00 20.5 3 Este 8 Sudeste 0 944.6 -- 32
2020-09-04 09:00:00 15.9 3 Este 9 Sudeste 0 944.2 -- 43
2020-09-04 08:00:00 12.7 4 Sudeste 10 Este 0 943.8 -- 52
2020-09-04 07:00:00 12.3 7 Este 10 Este 0 943.5 -- 54
2020-09-04 06:00:00 13.1 7 Este 11 Sudeste 0 943.2 -- 48
2020-09-04 05:00:00 13.9 6 Sudeste 8 Sudeste 0 943.2 -- 46
2020-09-04 04:00:00 14.7 7 Sudeste 13 Este 0 943.2 -- 43
2020-09-04 03:00:00 15.9 7 Este 10 Este 0 943.3 -- 40
2020-09-04 02:00:00 16.9 5 Oeste 13 Este 0 943.6 -- 39
2020-09-04 01:00:00 17.7 10 Este 15 Este 0 943.5 -- 33
2020-09-04 00:00:00 19.8 5 Este 10 Sudeste 0 943.5 -- 29
2020-09-03 23:00:00 23.5 5 Sudeste 7 Nordeste 0 943.1 -- 23
2020-09-03 22:00:00 25.3 5 Este 16 Sudoeste 0 942.8 -- 20
2020-09-03 21:00:00 27.5 5 Sudoeste 13 Sur 0 942.1 -- 17
2020-09-03 20:00:00 31 10 Norte 20 Norte 0 941.4 -- 13
2020-09-03 19:00:00 33.1 7 Noroeste 23 Este 0 941.4 -- 11
2020-09-03 18:00:00 33.7 5 Noroeste 17 Norte 0 941.3 -- 10
2020-09-03 17:00:00 32.9 10 Norte 22 Norte 0 941.7 -- 11
2020-09-03 16:00:00 33.1 9 Noroeste 37 Oeste 0 942 -- 11
2020-09-03 15:00:00 32.6 9 Sudoeste 23 Oeste 0 942.5 -- 12
2020-09-03 14:00:00 31.3 7 Noroeste 21 Noroeste 0 942.8 -- 12
2020-09-03 13:00:00 30.4 8 Sur 14 Oeste 0 943.2 -- 14
2020-09-03 12:00:00 28.1 4 Nordeste 11 Nordeste 0 943.2 -- 18
2020-09-03 11:00:00 22.8 3 Este 13 Sudeste 0 943.4 -- 26
2020-09-03 10:00:00 17.7 6 Este 11 Este 0 943.1 -- 35
2020-09-03 09:00:00 14 3 Sudeste 6 Sudeste 0 943 -- 48
2020-09-03 08:00:00 9.9 6 Este 8 Este 0 942.3 -- 61
2020-09-03 07:00:00 11 3 Sudoeste 8 Sudeste 0 941.7 -- 61
2020-09-03 06:00:00 12.1 4 Sur 6 Sudoeste 0 941.5 -- 54
2020-09-03 05:00:00 12.3 4 Sudeste 10 Este 0 941.3 -- 51
2020-09-03 04:00:00 13.2 6 Este 9 Sudeste 0 941.1 -- 44
2020-09-03 03:00:00 15.9 5 Oeste 14 Este 0 941 -- 37
2020-09-03 02:00:00 19.1 9 Sudeste 19 Este 0 940.9 -- 29
2020-09-03 01:00:00 20.1 11 Este 18 Este 0 940.7 -- 26
2020-09-03 00:00:00 21.3 5 Este 21 Nordeste 0 940.7 -- 24
2020-09-02 23:00:00 23.2 15 Este 27 Nordeste 0 940.5 -- 23
2020-09-02 22:00:00 23.4 15 Nordeste 22 Nordeste 0 940 -- 23
2020-09-02 21:00:00 25.1 12 Nordeste 20 Norte 0 939.2 -- 18
2020-09-02 20:00:00 28.3 12 Nordeste 20 Norte 0 938.5 -- 14
2020-09-02 19:00:00 29.7 8 Nordeste 25 Norte 0 938.3 -- 13
2020-09-02 18:00:00 30.3 8 Noroeste 28 Norte 0 938.3 -- 13
2020-09-02 17:00:00 30.5 6 Sur 20 Este 0 938.1 -- 13
2020-09-02 16:00:00 30.4 7 Nordeste 23 Sudeste 0 938.3 -- 13
2020-09-02 15:00:00 29.8 5 Sudeste 26 Sudeste 0 938.7 -- 14
2020-09-02 14:00:00 27.8 7 Nordeste 24 Este 0 938.9 -- 18
2020-09-02 13:00:00 25.9 9 Nordeste 19 Nordeste 0 939.4 -- 24
2020-09-02 12:00:00 23.1 6 Nordeste 20 Nordeste 0 939.5 -- 31
2020-09-02 11:00:00 20.2 6 Este 18 Nordeste 0 939.6 -- 41
2020-09-02 10:00:00 17.2 9 Nordeste 19 Nordeste 0 939.2 -- 51
2020-09-02 09:00:00 15.1 10 Este 25 Nordeste 0 938.9 -- 59
2020-09-02 08:00:00 13.3 15 Nordeste 23 Nordeste 0 938.4 -- 68
2020-09-02 07:00:00 12.4 8 Norte 22 Nordeste 0 938.2 -- 69
2020-09-02 06:00:00 14.4 13 Nordeste 24 Nordeste 0 937.7 -- 58
2020-09-02 05:00:00 14.3 8 Este 21 Este 0 937.4 -- 51
2020-09-02 04:00:00 12.9 4 Este 8 Este 0 937 -- 68
2020-09-02 03:00:00 13.8 6 Sudeste 10 Este 0 937.1 -- 66
2020-09-02 02:00:00 15.5 4 Sudoeste 18 Oeste 0 937.1 -- 62
2020-09-02 01:00:00 16.5 3 Noroeste 17 Noroeste 0 936.9 -- 58
2020-09-02 00:00:00 17.6 10 Noroeste 23 Noroeste 0 936.6 -- 54
2020-09-01 23:00:00 19.6 12 Noroeste 25 Noroeste 0 936.1 -- 46
2020-09-01 22:00:00 20.4 12 Noroeste 19 Oeste 0 935.6 -- 28
2020-09-01 21:00:00 23.3 10 Noroeste 22 Norte 0 935 -- 22
2020-09-01 20:00:00 26.2 9 Noroeste 22 Oeste 0 934.7 -- 18
2020-09-01 19:00:00 27.8 10 Noroeste 27 Oeste 0 934.5 -- 16
2020-09-01 18:00:00 28.2 9 Noroeste 24 Noroeste 0 934.5 -- 17
2020-09-01 17:00:00 28.1 9 Noroeste 25 Noroeste 0 934.8 -- 14
2020-09-01 16:00:00 28 14 Noroeste 36 Norte 0 935.4 -- 13
2020-09-01 15:00:00 27.5 9 Noroeste 29 Noroeste 0 936 -- 13
2020-09-01 14:00:00 26.7 9 Noroeste 22 Norte 0 936.4 -- 17
2020-09-01 13:00:00 25.4 7 Noroeste 26 Norte 0 937.2 -- 18
2020-09-01 12:00:00 22.6 5 Nordeste 12 Norte 0 937.4 -- 24
2020-09-01 11:00:00 19.3 3 Oeste 10 Sudeste 0 937.5 -- 30
2020-09-01 10:00:00 15.7 5 Este 10 Sudeste 0 937.5 -- 36
2020-09-01 09:00:00 13.8 4 Sudeste 6 Sudeste 0 937.5 -- 44
2020-09-01 08:00:00 11.4 2 Oeste 9 Noroeste 0 937.6 -- 47
2020-09-01 07:00:00 12.8 4 Sur 10 Este 0 937.2 -- 42
2020-09-01 06:00:00 12.9 7 Este 12 Sudeste 0 937.5 -- 42
2020-09-01 05:00:00 12.9 8 Sudeste 11 Sudeste 0 938.1 -- 44
2020-09-01 04:00:00 13.2 6 Este 9 Este 0 938.6 -- 38
2020-09-01 03:00:00 14.2 4 Sudeste 6 Sudeste 0 938.5 -- 37
2020-09-01 02:00:00 15.4 3 Este 8 Noroeste 0 938.9 -- 34
2020-09-01 01:00:00 15.8 6 Oeste 8 Oeste 0 939 -- 32
2020-09-01 00:00:00 16.8 6 Sur 9 Sur 0 939.1 -- 29
2020-08-31 23:00:00 17.8 5 Sur 13 Norte 0 939.1 -- 27
2020-08-31 22:00:00 19 10 Norte 16 Norte 0 938.8 -- 25
2020-08-31 21:00:00 21.3 10 Norte 22 Noroeste 0 938.5 -- 20
2020-08-31 20:00:00 24.9 12 Noroeste 24 Norte 0 938.1 -- 14
2020-08-31 19:00:00 27.5 9 Noroeste 30 Noroeste 0 938.3 -- 12
2020-08-31 18:00:00 27.5 10 Oeste 27 Oeste 0 938.6 -- 12
2020-08-31 17:00:00 27.8 11 Oeste 30 Oeste 0 939.2 -- 13
2020-08-31 16:00:00 27.1 8 Sudoeste 26 Sur 0 939.7 -- 14
2020-08-31 15:00:00 26.4 9 Sudeste 24 Sudoeste 0 940.3 -- 16
2020-08-31 14:00:00 24.4 6 Oeste 25 Sur 0 940.9 -- 19
2020-08-31 13:00:00 23.4 9 Oeste 23 Oeste 0 941.5 -- 21
2020-08-31 12:00:00 20.1 7 Oeste 15 Noroeste 0 941.9 -- 26
2020-08-31 11:00:00 16.8 4 Este 11 Sudoeste 0 941.9 -- 33
2020-08-31 10:00:00 13.9 2 Sur 9 Este 0 941.8 -- 40
2020-08-31 09:00:00 9.6 5 Este 8 Este 0 941.5 -- 52
2020-08-31 08:00:00 6.3 4 Noroeste 5 Norte 0 941.2 -- 66
2020-08-31 07:00:00 6.4 2 Este 5 Este 0 940.5 -- 63
2020-08-31 06:00:00 6.9 4 Este 8 Sur 0 940.2 -- 59
2020-08-31 05:00:00 9.4 5 Sur 10 Sudeste 0 940.3 -- 50
2020-08-31 04:00:00 10.5 4 Sur 12 Este 0 940.5 -- 47
2020-08-31 03:00:00 12.1 8 Sudeste 18 Nordeste 0 940.5 -- 41
2020-08-31 02:00:00 13.9 10 Nordeste 15 Nordeste 0 940.6 -- 40
2020-08-31 01:00:00 13.6 9 Nordeste 15 Este 0 940.7 -- 41
2020-08-31 00:00:00 14.6 10 Nordeste 22 Este 0 940.6 -- 39
2020-08-30 23:00:00 16 14 Nordeste 27 Nordeste 0 940.1 -- 34
2020-08-30 22:00:00 17.8 19 Nordeste 28 Nordeste 0 939.2 -- 32
2020-08-30 21:00:00 19 14 Nordeste 25 Nordeste 0 938.6 -- 27
2020-08-30 20:00:00 21 17 Nordeste 28 Nordeste 0 938 -- 25
2020-08-30 19:00:00 22.3 14 Nordeste 30 Norte 0 937.6 -- 19
2020-08-30 18:00:00 22.7 12 Nordeste 30 Norte 0 937.3 -- 19
2020-08-30 17:00:00 23.4 12 Norte 30 Nordeste 0 937.4 -- 19
2020-08-30 16:00:00 23.4 13 Norte 37 Nordeste 0 937.6 -- 19
2020-08-30 15:00:00 22 17 Norte 31 Norte 0 938 -- 22
2020-08-30 14:00:00 21.8 6 Nordeste 38 Nordeste 0 938.3 -- 23
2020-08-30 13:00:00 20.1 18 Nordeste 36 Nordeste 0 938.5 -- 29
2020-08-30 12:00:00 18.6 20 Nordeste 37 Nordeste 0 938.5 -- 35
2020-08-30 11:00:00 16.7 24 Este 40 Nordeste 0 938.4 -- 42
2020-08-30 10:00:00 15.4 24 Nordeste 46 Nordeste 0 938 -- 45
2020-08-30 09:00:00 13.4 30 Nordeste 47 Nordeste 0 937.3 -- 53
2020-08-30 08:00:00 10.3 4 Norte 13 Nordeste 0 937.3 -- 65
2020-08-30 07:00:00 10 3 Nordeste 11 Este 0 937 -- 68
2020-08-30 06:00:00 10.5 3 Noroeste 15 Este 0 936.9 -- 66
2020-08-30 05:00:00 11.6 10 Nordeste 23 Nordeste 0 936.8 -- 62
2020-08-30 04:00:00 12.3 13 Nordeste 23 Este 0 937 -- 58
2020-08-30 03:00:00 13 9 Nordeste 27 Nordeste 0 937 -- 55
2020-08-30 02:00:00 13.5 14 Nordeste 24 Nordeste 0 937.2 -- 53
2020-08-30 01:00:00 13.4 9 Norte 18 Noroeste 0 937.3 -- 51
2020-08-30 00:00:00 14.4 10 Norte 19 Norte 0 936.9 -- 46
2020-08-29 23:00:00 15.7 12 Norte 28 Norte 0 936.3 -- 44
2020-08-29 22:00:00 17.3 17 Noroeste 37 Norte 0 935.4 -- 37
2020-08-29 21:00:00 19 15 Noroeste 33 Norte 0 934.5 -- 36
2020-08-29 20:00:00 19.8 5 Norte 20 Norte 0 934.1 -- 33
2020-08-29 19:00:00 20 13 Nordeste 32 Nordeste 0 934 -- 33
2020-08-29 18:00:00 20.3 18 Norte 47 Nordeste 0 933.9 -- 34
2020-08-29 17:00:00 22.3 17 Noroeste 36 Noroeste 0 933.5 -- 28
2020-08-29 16:00:00 22.6 18 Noroeste 40 Norte 0 933.7 -- 27
2020-08-29 15:00:00 22.5 16 Norte 44 Noroeste 0 934 -- 28
2020-08-29 14:00:00 21.2 19 Norte 38 Norte 0 934 -- 30
2020-08-29 13:00:00 19.5 17 Norte 36 Norte 0 934.4 -- 35
2020-08-29 12:00:00 18.1 17 Noroeste 38 Noroeste 0 934.5 -- 43
2020-08-29 11:00:00 16.2 19 Noroeste 38 Norte 0 934.5 -- 51
2020-08-29 10:00:00 13.9 22 Norte 35 Norte 0 934.4 -- 61
2020-08-29 09:00:00 11.7 14 Norte 28 Norte 0 934.1 -- 71
2020-08-29 08:00:00 9.4 13 Norte 23 Norte 0 933.8 -- 76
2020-08-29 07:00:00 9.1 15 Norte 27 Norte 0 933.6 -- 76
2020-08-29 06:00:00 10 15 Norte 30 Norte 0 933.3 -- 72
2020-08-29 05:00:00 10.8 17 Norte 32 Norte 0 933.2 -- 68
2020-08-29 04:00:00 11.3 15 Norte 26 Noroeste 0 933.4 -- 67
2020-08-29 03:00:00 12 14 Noroeste 24 Norte 0 933.9 -- 62
2020-08-29 02:00:00 12.9 10 Norte 24 Noroeste 0 934.3 -- 59
2020-08-29 01:00:00 14.4 13 Noroeste 33 Norte 0 934.5 -- 53
2020-08-29 00:00:00 15.8 20 Noroeste 38 Noroeste 0 934.5 -- 49
2020-08-28 23:00:00 17.4 19 Noroeste 41 Norte 0 934.1 -- 39
2020-08-28 22:00:00 18.7 24 Norte 44 Norte 0 933.4 -- 39
2020-08-28 21:00:00 20.4 17 Noroeste 44 Noroeste 0 932.8 -- 33
2020-08-28 20:00:00 22.2 21 Noroeste 41 Noroeste 0 932.4 -- 32
2020-08-28 19:00:00 25 21 Noroeste 41 Noroeste 0 932.4 -- 25
2020-08-28 18:00:00 26.5 18 Noroeste 44 Oeste 0 932.6 -- 20
2020-08-28 17:00:00 26.5 16 Noroeste 42 Noroeste 0 933 -- 24
2020-08-28 16:00:00 26.6 14 Noroeste 41 Noroeste 0 933.5 -- 25
2020-08-28 15:00:00 26.4 17 Noroeste 45 Noroeste 0 934.1 -- 23
2020-08-28 14:00:00 25.7 18 Noroeste 44 Norte 0 934.7 -- 21
2020-08-28 13:00:00 24.5 19 Noroeste 38 Norte 0 935.6 -- 29
2020-08-28 12:00:00 22.9 15 Noroeste 33 Norte 0 936.1 -- 34
2020-08-28 11:00:00 21.1 11 Norte 26 Noroeste 0 936.4 -- 56
2020-08-28 10:00:00 19.6 8 Noroeste 23 Norte 0 936.7 -- 70
2020-08-28 09:00:00 16.1 0 Calma 5 Sudeste 0 936.8 -- 87
2020-08-28 08:00:00 14.7 0 Calma 5 Sudoeste 0 936.9 -- 89
2020-08-28 07:00:00 14.7 0 Calma 5 Este 0 937.2 -- 87
2020-08-28 06:00:00 15.4 0 Calma 5 Oeste 0 937.3 -- 85
2020-08-28 05:00:00 16.2 2 Noroeste 8 Noroeste 0 937.9 -- 85
2020-08-28 04:00:00 17 4 Oeste 11 Noroeste 0 938.2 -- 83
2020-08-28 03:00:00 17.8 8 Noroeste 21 Noroeste 0 938.7 -- 82
2020-08-28 02:00:00 18.8 9 Noroeste 21 Noroeste 0 939.1 -- 78
2020-08-28 01:00:00 20.3 7 Oeste 28 Noroeste 0 939.2 -- 71
2020-08-28 00:00:00 22.1 14 Noroeste 30 Noroeste 0 939.3 -- 59